EDT,Max TemperatureF,Mean TemperatureF,Min TemperatureF,Max Dew PointF,MeanDew PointF,Min DewpointF,Max Humidity, Mean Humidity, Min Humidity, Max Sea Level PressureIn, Mean Sea Level PressureIn, Min Sea Level PressureIn, Max VisibilityMiles, Mean VisibilityMiles, Min VisibilityMiles, Max Wind SpeedMPH, Mean Wind SpeedMPH, Max Gust SpeedMPH,PrecipitationIn, CloudCover, Events, WindDirDegrees
2013-6-1,82,72,63,62,59,56,84,65,44,30.05,29.98,29.88,10,10,10,17,7,23,0.00,3,,220
2013-6-2,73,68,64,63,59,54,94,73,51,29.92,29.87,29.82,10,10,6,20,11,28,0.03,5,Rain,238
2013-6-3,63,58,50,61,54,38,94,81,63,30.06,29.94,29.87,10,9,4,14,6,,0.00,6,Rain,296
2013-6-4,66,54,43,42,39,35,74,56,41,30.17,30.13,30.06,10,10,10,12,8,18,0.00,0,,333
2013-6-5,71,59,48,54,47,40,83,62,48,30.18,30.10,30.01,10,10,10,12,5,18,0.00,1,,127
2013-6-6,62,58,55,58,55,53,100,90,75,30.01,29.92,29.85,10,7,1,20,10,33,0.53,8,Rain,155
2013-6-7,64,60,57,61,59,57,100,94,87,29.86,29.79,29.73,10,6,0,14,7,20,0.31,8,Fog-Rain,29
2013-6-8,64,57,51,55,51,50,100,88,65,30.16,30.00,29.82,10,6,0,12,8,,0.01,6,Fog-Rain,282
2013-6-9,73,64,54,63,57,52,93,76,59,30.22,30.16,30.09,10,8,4,10,4,16,0.00,3,,158
2013-6-10,73,66,60,65,61,57,94,88,73,30.10,29.94,29.82,10,8,1,21,10,30,0.50,7,Rain,173
2013-6-11,70,64,60,63,59,57,100,87,70,29.93,29.86,29.79,10,7,0,20,11,31,0.07,7,Fog-Rain,269
2013-6-12,75,69,63,65,61,58,90,78,55,29.96,29.90,29.81,10,7,3,16,9,22,0.00,5,Rain,276
2013-6-13,69,62,55,66,60,50,96,88,79,29.81,29.68,29.55,10,7,1,24,10,38,0.77,7,Rain-Thunderstorm,258
2013-6-14,68,58,51,53,50,48,89,76,56,30.06,29.91,29.77,10,10,10,18,11,23,0.00,6,,323
2013-6-15,70,60,50,52,47,39,100,67,33,30.13,30.09,30.04,10,8,2,12,7,17,0.00,0,,272
2013-6-16,70,63,57,63,58,49,96,85,67,30.05,29.97,29.93,10,8,2,20,9,36,0.22,8,Rain,237
2013-6-17,75,68,62,63,59,53,100,79,46,30.03,29.98,29.94,10,6,0,10,6,,0.16,5,Fog-Rain,258
2013-6-18,72,66,60,63,59,55,90,77,66,29.98,29.91,29.86,10,10,7,10,4,,0.00,4,,347
2013-6-19,71,60,50,57,49,41,100,72,36,30.18,30.06,29.96,10,10,9,8,5,,0.00,3,,52
2013-6-20,78,65,55,59,53,46,87,65,38,30.25,30.22,30.18,10,10,10,9,3,,0.00,2,,210
2013-6-21,79,68,59,61,56,49,94,71,39,30.30,30.26,30.22,10,9,2,10,4,16,0.00,0,,199
2013-6-22,82,72,62,62,59,56,84,66,45,30.25,30.20,30.13,10,10,10,10,6,16,0.00,0,,209
2013-6-23,82,73,64,63,60,56,81,64,42,30.20,30.15,30.10,10,10,9,13,5,,0.00,1,Thunderstorm,234
2013-6-24,82,73,64,64,61,58,84,66,45,30.21,30.13,30.06,10,10,7,13,6,,0.00,1,Thunderstorm,247
2013-6-25,82,72,62,63,61,57,94,74,49,30.10,30.03,29.93,10,8,2,24,9,48,0.22,3,Rain-Thunderstorm,250
2013-6-26,75,66,60,65,62,58,100,86,69,30.07,29.96,29.87,10,8,2,15,8,26,0.74,6,Rain-Thunderstorm,256
2013-6-27,70,66,62,66,64,61,100,94,84,29.86,29.76,29.65,10,4,0,16,5,21,2.12,7,Fog-Rain,250
2013-6-28,73,64,57,63,60,55,100,88,73,29.68,29.62,29.55,10,8,1,18,8,28,0.17,5,Rain-Thunderstorm,253
2013-6-29,73,66,59,61,58,57,96,81,59,29.74,29.64,29.57,10,9,2,13,7,21,0.00,6,Rain-Thunderstorm,225
2013-6-30,78,69,60,63,60,57,93,77,52,29.88,29.81,29.73,10,10,9,21,5,25,0.00,3,Rain-Thunderstorm,134